Time;durP1;ratioP1;P1;durP2;ratioP2;P2;SDS_P1;SDS_P2;PMS_P1;PMS_P2;Temp;Humidity;BMP_temperature;BMP_pressure;BME280_temperature;BME280_humidity;BME280_pressure;Samples;Min_cycle;Max_cycle;Signal;HPM_P1;HPM_P2
2023/08/30 00:01:50;;;;;;;;;;;;;;;;;;4988246;28;19917;-91
2023/08/30 00:04:16;;;;;;;;;;;;;;;;;;5007517;28;19909;-90
2023/08/30 00:06:42;;;;;;;;;;;;;;;;;;4987211;28;19916;-90
2023/08/30 00:09:08;;;;;;;;;;;;;;;;;;4984001;28;19939;-90
2023/08/30 00:11:34;;;;;;;;;;;;;;;;;;4984153;28;19913;-89
2023/08/30 00:14:10;;;;;;;;;;;;;;;;;;4990716;28;19929;-89
2023/08/30 00:16:38;;;;;;;;;;;;;;;;;;4993162;28;19943;-92
2023/08/30 00:19:04;;;;;;;;;;;;;;;;;;4990179;28;19919;-90
2023/08/30 00:21:30;;;;;;;;;;;;;;;;;;4988570;28;19918;-90
2023/08/30 00:23:56;;;;;;;;;;;;;;;;;;4992486;28;19913;-89
2023/08/30 00:26:24;;;;;;;;;;;;;;;;;;4988604;28;19979;-88
2023/08/30 00:28:50;;;;;;;;;;;;;;;;;;4987820;28;19913;-91
2023/08/30 00:31:16;;;;;;;;;;;;;;;;;;4998802;28;20511;-90
2023/08/30 00:33:42;;;;;;;;;;;;;;;;;;4984886;28;19909;-90
2023/08/30 00:36:08;;;;;;;;;;;;;;;;;;4987091;28;19956;-90
2023/08/30 00:38:34;;;;;;;;;;;;;;;;;;4983583;28;20347;-90
2023/08/30 00:41:00;;;;;;;;;;;;;;;;;;4992513;28;19924;-90
2023/08/30 00:43:26;;;;;;;;;;;;;;;;;;4990214;28;19918;-89
2023/08/30 00:45:52;;;;;;;;;;;;;;;;;;4995963;28;19913;-89
2023/08/30 00:48:18;;;;;;;;;;;;;;;;;;4989715;28;20005;-90
2023/08/30 00:50:44;;;;;;;;;;;;;;;;;;4990652;28;19917;-90
2023/08/30 00:53:10;;;;;;;;;;;;;;;;;;4989247;28;19962;-90
2023/08/30 00:55:36;;;;;;;;;;;;;;;;;;4994058;28;19921;-91
2023/08/30 00:58:02;;;;;;;;;;;;;;;;;;4991196;28;19910;-89
2023/08/30 01:00:29;;;;;;;;;;;;;;;;;;4982074;28;19918;-89
2023/08/30 01:02:55;;;;;;;;;;;;;;;;;;4981770;28;19936;-89
2023/08/30 01:05:20;;;;;;;;;;;;;;;;;;4987556;28;20428;-89
2023/08/30 01:07:47;;;;;;;;;;;;;;;;;;4994923;28;19991;-89
2023/08/30 01:10:12;;;;;;;;;;;;;;;;;;5003121;28;19909;-90
2023/08/30 01:12:38;;;;;;;;;;;;;;;;;;4986011;28;19910;-89
2023/08/30 01:15:05;;;;;;;;;;;;;;;;;;4987980;28;19976;-90
2023/08/30 01:17:31;;;;;;;;;;;;;;;;;;4983068;28;20140;-90
2023/08/30 01:19:57;;;;;;;;;;;;;;;;;;4971835;28;19964;-90
2023/08/30 01:22:22;;;;;;;;;;;;;;;;;;4968997;28;20028;-91
2023/08/30 01:24:48;;;;;;;;;;;;;;;;;;4969687;28;19981;-90
2023/08/30 01:27:14;;;;;;;;;;;;;;;;;;4970676;28;20012;-90
2023/08/30 01:29:40;;;;;;;;;;;;;;;;;;4969005;28;19914;-90
2023/08/30 01:32:06;;;;;;;;;;;;;;;;;;4976161;28;20035;-91
2023/08/30 01:34:33;;;;;;;;;;;;;;;;;;4968556;28;19941;-91
2023/08/30 01:36:59;;;;;;;;;;;;;;;;;;4980015;28;19966;-90
2023/08/30 01:39:25;;;;;;;;;;;;;;;;;;4975659;28;20411;-90
2023/08/30 01:41:52;;;;;;;;;;;;;;;;;;4987629;28;19925;-91
2023/08/30 01:44:18;;;;;;;;;;;;;;;;;;4967063;28;20462;-90
2023/08/30 01:46:44;;;;;;;;;;;;;;;;;;4980237;28;19969;-90
2023/08/30 01:49:09;;;;;;;;;;;;;;;;;;4962732;28;19918;-91
2023/08/30 01:51:35;;;;;;;;;;;;;;;;;;4969043;28;19914;-90
2023/08/30 01:54:02;;;;;;;;;;;;;;;;;;4971867;28;19945;-90
2023/08/30 01:56:27;;;;;;;;;;;;;;;;;;4979511;28;19948;-90
2023/08/30 01:58:53;;;;;;;;;;;;;;;;;;4964956;28;19945;-90
2023/08/30 02:01:19;;;;;;;;;;;;;;;;;;4969150;28;19984;-90
2023/08/30 02:03:45;;;;;;;;;;;;;;;;;;4969707;28;20412;-91
2023/08/30 02:06:11;;;;;;;;;;;;;;;;;;4967339;28;19942;-90
2023/08/30 02:08:37;;;;;;;;;;;;;;;;;;4970637;28;19920;-90
2023/08/30 02:11:03;;;;;;;;;;;;;;;;;;4979505;28;19910;-91
2023/08/30 02:13:29;;;;;;;;;;;;;;;;;;4980438;28;19913;-91
2023/08/30 02:15:56;;;;;;;;;;;;;;;;;;4979424;28;19910;-90
2023/08/30 02:18:22;;;;;;;;;;;;;;;;;;4989109;28;19918;-90
2023/08/30 02:20:48;;;;;;;;;;;;;;;;;;4986724;28;20266;-90
2023/08/30 02:23:14;;;;;;;;;;;;;;;;;;4989419;28;19917;-90
2023/08/30 02:25:40;;;;;;;;;;;;;;;;;;4983399;28;19909;-90
2023/08/30 02:28:06;;;;;;;;;;;;;;;;;;4987609;28;20403;-93
2023/08/30 02:30:32;;;;;;;;;;;;;;;;;;4992297;28;19916;-93
2023/08/30 02:32:58;;;;;;;;;;;;;;;;;;4990264;28;20020;-92
2023/08/30 02:35:30;;;;;;;;;;;;;;;;;;4990158;28;20012;-95
2023/08/30 02:37:57;;;;;;;;;;;;;;;;;;4984631;28;19910;-93
2023/08/30 02:40:23;;;;;;;;;;;;;;;;;;4984156;28;19918;-94
2023/08/30 02:42:49;;;;;;;;;;;;;;;;;;4990161;28;19925;-95
2023/08/30 02:45:15;;;;;;;;;;;;;;;;;;4987395;28;19913;-93
2023/08/30 02:47:40;;;;;;;;;;;;;;;;;;4991055;28;19948;-94
2023/08/30 02:50:06;;;;;;;;;;;;;;;;;;4988805;28;19968;-93
2023/08/30 02:52:32;;;;;;;;;;;;;;;;;;4980913;28;19913;-94
2023/08/30 02:54:58;;;;;;;;;;;;;;;;;;4988420;28;19936;-94
2023/08/30 02:57:24;;;;;;;;;;;;;;;;;;4985905;28;19910;-93
2023/08/30 02:59:50;;;;;;;;;;;;;;;;;;4989854;28;19917;-94
2023/08/30 03:02:16;;;;;;;;;;;;;;;;;;4987847;28;20385;-94
2023/08/30 03:04:42;;;;;;;;;;;;;;;;;;4987881;28;19914;-94
2023/08/30 03:07:08;;;;;;;;;;;;;;;;;;4987012;28;19925;-93
2023/08/30 03:09:34;;;;;;;;;;;;;;;;;;4987309;28;19913;-93
2023/08/30 03:12:00;;;;;;;;;;;;;;;;;;4989197;28;19925;-93
2023/08/30 03:14:26;;;;;;;;;;;;;;;;;;4992249;28;20139;-93
2023/08/30 03:16:52;;;;;;;;;;;;;;;;;;4990848;28;19917;-93
2023/08/30 03:19:18;;;;;;;;;;;;;;;;;;4988907;28;19918;-93
2023/08/30 03:21:44;;;;;;;;;;;;;;;;;;4991358;28;19948;-93
2023/08/30 03:24:10;;;;;;;;;;;;;;;;;;4990701;28;20111;-94
2023/08/30 03:26:36;;;;;;;;;;;;;;;;;;4989017;28;19926;-92
2023/08/30 03:29:02;;;;;;;;;;;;;;;;;;4988372;28;20240;-93
2023/08/30 03:31:28;;;;;;;;;;;;;;;;;;4989390;28;19917;-93
2023/08/30 03:33:54;;;;;;;;;;;;;;;;;;4982472;28;19971;-92
2023/08/30 03:36:20;;;;;;;;;;;;;;;;;;4986022;28;19943;-94
2023/08/30 03:38:46;;;;;;;;;;;;;;;;;;4992704;28;20361;-95
2023/08/30 03:41:12;;;;;;;;;;;;;;;;;;4996693;28;19913;-92
2023/08/30 03:43:38;;;;;;;;;;;;;;;;;;4987995;28;19913;-92
2023/08/30 03:46:04;;;;;;;;;;;;;;;;;;4985318;28;19938;-93
2023/08/30 03:48:30;;;;;;;;;;;;;;;;;;4986382;28;20176;-92
2023/08/30 03:50:56;;;;;;;;;;;;;;;;;;4991517;28;20363;-93
2023/08/30 03:53:22;;;;;;;;;;;;;;;;;;5005858;28;19921;-92
2023/08/30 03:55:48;;;;;;;;;;;;;;;;;;5001739;28;19917;-93
2023/08/30 03:58:14;;;;;;;;;;;;;;;;;;4999193;28;19972;-92
2023/08/30 04:00:40;;;;;;;;;;;;;;;;;;4993583;28;19924;-95
2023/08/30 04:03:06;;;;;;;;;;;;;;;;;;4999175;28;20389;-93
2023/08/30 04:05:32;;;;;;;;;;;;;;;;;;4992025;28;20428;-92
2023/08/30 04:07:57;;;;;;;;;;;;;;;;;;4996650;28;19917;-94
2023/08/30 04:10:23;;;;;;;;;;;;;;;;;;4997147;28;19918;-93
2023/08/30 04:12:49;;;;;;;;;;;;;;;;;;4992293;28;19936;-91
2023/08/30 04:15:15;;;;;;;;;;;;;;;;;;4999941;28;19910;-94
2023/08/30 04:17:41;;;;;;;;;;;;;;;;;;4992724;28;19929;-93
2023/08/30 04:20:07;;;;;;;;;;;;;;;;;;4991592;28;19921;-91
2023/08/30 04:22:34;;;;;;;;;;;;;;;;;;4980063;28;19930;-93
2023/08/30 04:25:00;;;;;;;;;;;;;;;;;;4983394;28;19938;-91
2023/08/30 04:27:26;;;;;;;;;;;;;;;;;;4967002;28;19918;-95
2023/08/30 04:29:52;;;;;;;;;;;;;;;;;;4974029;28;19909;-94
2023/08/30 04:32:18;;;;;;;;;;;;;;;;;;4992616;28;20465;-94
2023/08/30 04:34:44;;;;;;;;;;;;;;;;;;4987501;28;20357;-93
2023/08/30 04:37:10;;;;;;;;;;;;;;;;;;4980960;28;19993;-95
2023/08/30 04:39:36;;;;;;;;;;;;;;;;;;4977053;28;19910;-93
2023/08/30 04:42:03;;;;;;;;;;;;;;;;;;4976508;28;19929;-92
2023/08/30 04:44:29;;;;;;;;;;;;;;;;;;4973336;28;19936;-93
2023/08/30 04:46:54;;;;;;;;;;;;;;;;;;4976427;28;20000;-92
2023/08/30 04:49:20;;;;;;;;;;;;;;;;;;4980209;28;20018;-92
2023/08/30 04:51:46;;;;;;;;;;;;;;;;;;4986163;28;19945;-92
2023/08/30 04:54:13;;;;;;;;;;;;;;;;;;4982718;28;19910;-92
2023/08/30 04:56:39;;;;;;;;;;;;;;;;;;4996443;28;20221;-90
2023/08/30 04:59:05;;;;;;;;;;;;;;;;;;4971618;28;19913;-87
2023/08/30 05:01:31;;;;;;;;;;;;;;;;;;4968333;28;19917;-88
2023/08/30 05:03:57;;;;;;;;;;;;;;;;;;4967917;28;20317;-90
2023/08/30 05:06:23;;;;;;;;;;;;;;;;;;4966504;28;20471;-87
2023/08/30 05:08:49;;;;;;;;;;;;;;;;;;4977255;28;19941;-88
2023/08/30 05:11:16;;;;;;;;;;;;;;;;;;4961039;28;19910;-89
2023/08/30 05:13:42;;;;;;;;;;;;;;;;;;4970170;28;20368;-89
2023/08/30 05:16:07;;;;;;;;;;;;;;;;;;4966289;28;20153;-89
2023/08/30 05:18:34;;;;;;;;;;;;;;;;;;4979036;28;19968;-88
2023/08/30 05:21:03;;;;;;;;;;;;;;;;;;4988796;28;19914;-89
2023/08/30 05:23:29;;;;;;;;;;;;;;;;;;4981798;28;19996;-90
2023/08/30 05:25:55;;;;;;;;;;;;;;;;;;4994240;28;20440;-88
2023/08/30 05:28:21;;;;;;;;;;;;;;;;;;4989172;28;19914;-89
2023/08/30 05:30:47;;;;;;;;;;;;;;;;;;4990898;28;19995;-89
2023/08/30 05:33:13;;;;;;;;;;;;;;;;;;4988433;28;19917;-88
2023/08/30 05:35:39;;;;;;;;;;;;;;;;;;4987220;28;19909;-89
2023/08/30 05:38:05;;;;;;;;;;;;;;;;;;4990449;28;20069;-86
2023/08/30 05:40:31;;;;;;;;;;;;;;;;;;4983339;28;19925;-90
2023/08/30 05:42:57;;;;;;;;;;;;;;;;;;4981344;28;19910;-89
2023/08/30 05:45:23;;;;;;;;;;;;;;;;;;4980885;28;19920;-89
2023/08/30 05:47:49;;;;;;;;;;;;;;;;;;4987320;28;19924;-88
2023/08/30 05:50:15;;;;;;;;;;;;;;;;;;4987743;28;19917;-89
2023/08/30 05:52:44;;;;;;;;;;;;;;;;;;4985927;28;19979;-90
2023/08/30 05:55:10;;;;;;;;;;;;;;;;;;4986694;28;19917;-89
2023/08/30 05:57:36;;;;;;;;;;;;;;;;;;4986823;28;19917;-91
2023/08/30 06:00:02;;;;;;;;;;;;;;;;;;4987974;28;19920;-89
2023/08/30 06:02:28;;;;;;;;;;;;;;;;;;4984130;28;20345;-90
2023/08/30 06:04:54;;;;;;;;;;;;;;;;;;4985508;28;19909;-89
2023/08/30 06:07:20;;;;;;;;;;;;;;;;;;4987238;28;19917;-90
2023/08/30 06:09:46;;;;;;;;;;;;;;;;;;4976741;28;19909;-89
2023/08/30 06:12:12;;;;;;;;;;;;;;;;;;4991533;28;20019;-89
2023/08/30 06:14:38;;;;;;;;;;;;;;;;;;4982468;28;20191;-91
2023/08/30 06:17:04;;;;;;;;;;;;;;;;;;4979720;28;19921;-91
2023/08/30 06:19:30;;;;;;;;;;;;;;;;;;4964802;28;20101;-90
2023/08/30 06:21:56;;;;;;;;;;;;;;;;;;4959879;28;19940;-90
2023/08/30 06:24:22;;;;;;;;;;;;;;;;;;4960493;28;20004;-90
2023/08/30 06:26:48;;;;;;;;;;;;;;;;;;4957091;28;19917;-90
2023/08/30 06:29:14;;;;;;;;;;;;;;;;;;4961712;28;19972;-90
2023/08/30 06:31:41;;;;;;;;;;;;;;;;;;4957219;28;21291;-90
2023/08/30 06:34:07;;;;;;;;;;;;;;;;;;4961782;28;19936;-91
2023/08/30 06:36:33;;;;;;;;;;;;;;;;;;4962399;28;19922;-91
2023/08/30 06:38:59;;;;;;;;;;;;;;;;;;4960032;28;19965;-90
2023/08/30 06:41:25;;;;;;;;;;;;;;;;;;4958695;28;19972;-91
2023/08/30 06:43:51;;;;;;;;;;;;;;;;;;4961205;28;20382;-89
2023/08/30 06:46:17;;;;;;;;;;;;;;;;;;4963304;28;19972;-88
2023/08/30 06:48:43;;;;;;;;;;;;;;;;;;4957881;28;19918;-90
2023/08/30 06:51:10;;;;;;;;;;;;;;;;;;4962386;28;20131;-90
2023/08/30 06:53:36;;;;;;;;;;;;;;;;;;4959975;28;20406;-89
2023/08/30 06:56:02;;;;;;;;;;;;;;;;;;4960374;28;22464;-90
2023/08/30 06:58:28;;;;;;;;;;;;;;;;;;4958146;28;19944;-89
2023/08/30 07:00:54;;;;;;;;;;;;;;;;;;4964638;28;19918;-90
2023/08/30 07:03:20;;;;;;;;;;;;;;;;;;4957569;28;20183;-91
2023/08/30 07:05:49;;;;;;;;;;;;;;;;;;4965334;28;19925;-90
2023/08/30 07:08:15;;;;;;;;;;;;;;;;;;4973377;28;19918;-90
2023/08/30 07:10:41;;;;;;;;;;;;;;;;;;4958227;28;20457;-90
2023/08/30 07:13:10;;;;;;;;;;;;;;;;;;4975227;28;20295;-89
2023/08/30 07:15:46;;;;;;;;;;;;;;;;;;4945696;28;19925;-90
2023/08/30 07:18:12;;;;;;;;;;;;;;;;;;4979308;28;19996;-90
2023/08/30 07:20:38;;;;;;;;;;;;;;;;;;4980507;28;19928;-91
2023/08/30 07:23:04;;;;;;;;;;;;;;;;;;4981310;28;19918;-88
2023/08/30 07:25:32;;;;;;;;;;;;;;;;;;4984213;28;19948;-89
2023/08/30 07:27:58;;;;;;;;;;;;;;;;;;4986977;28;20135;-90
2023/08/30 07:30:24;;;;;;;;;;;;;;;;;;4989026;28;19913;-90
2023/08/30 07:32:50;;;;;;;;;;;;;;;;;;4988929;28;19983;-88
2023/08/30 07:35:16;;;;;;;;;;;;;;;;;;4987350;28;20369;-89
2023/08/30 07:37:42;;;;;;;;;;;;;;;;;;4990172;28;19968;-89
2023/08/30 07:40:08;;;;;;;;;;;;;;;;;;4983319;28;19917;-89
2023/08/30 07:42:34;;;;;;;;;;;;;;;;;;4988011;28;20385;-90
2023/08/30 07:45:00;;;;;;;;;;;;;;;;;;4986257;28;19917;-89
2023/08/30 07:47:26;;;;;;;;;;;;;;;;;;4983501;28;19917;-90
2023/08/30 07:49:52;;;;;;;;;;;;;;;;;;4985717;28;19957;-88
2023/08/30 07:52:18;;;;;;;;;;;;;;;;;;4986220;28;19916;-89
2023/08/30 07:54:44;;;;;;;;;;;;;;;;;;5003295;28;20091;-90
2023/08/30 07:57:10;;;;;;;;;;;;;;;;;;4992585;28;19913;-89
2023/08/30 07:59:57;;;;;;;;;;;;;;;;;;4988587;28;20318;-92
2023/08/30 08:02:22;;;;;;;;;;;;;;;;;;4997365;28;20166;-90
2023/08/30 08:04:52;;;;;;;;;;;;;;;;;;4985365;28;19972;-88
2023/08/30 08:07:18;;;;;;;;;;;;;;;;;;4994535;28;19913;-90
2023/08/30 08:09:44;;;;;;;;;;;;;;;;;;4987226;28;19912;-88
2023/08/30 08:12:10;;;;;;;;;;;;;;;;;;4984839;28;19971;-89
2023/08/30 08:14:39;;;;;;;;;;;;;;;;;;4982199;28;19996;-88
2023/08/30 08:17:05;;;;;;;;;;;;;;;;;;4980171;28;20004;-89
2023/08/30 08:19:31;;;;;;;;;;;;;;;;;;4966437;28;20036;-89
2023/08/30 08:21:57;;;;;;;;;;;;;;;;;;4977118;28;19932;-88
2023/08/30 08:24:25;;;;;;;;;;;;;;;;;;4980144;28;19921;-88
2023/08/30 08:26:51;;;;;;;;;;;;;;;;;;4977529;28;20288;-89
2023/08/30 08:29:24;;;;;;;;;;;;;;;;;;4962410;28;19914;-88
2023/08/30 08:31:50;;;;;;;;;;;;;;;;;;4973093;28;20420;-88
2023/08/30 08:34:16;;;;;;;;;;;;;;;;;;4964770;28;20000;-89
2023/08/30 08:36:42;;;;;;;;;;;;;;;;;;4973440;28;20370;-88
2023/08/30 08:39:09;;;;;;;;;;;;;;;;;;4980629;28;19909;-93
2023/08/30 08:41:35;;;;;;;;;;;;;;;;;;4968208;28;20408;-95
2023/08/30 08:44:01;;;;;;;;;;;;;;;;;;4967831;28;19910;-92
2023/08/30 08:46:27;;;;;;;;;;;;;;;;;;4984336;28;20006;-94
2023/08/30 08:48:53;;;;;;;;;;;;;;;;;;4980245;28;19920;-91
2023/08/30 08:51:20;;;;;;;;;;;;;;;;;;4965906;28;19985;-93
2023/08/30 08:53:46;;;;;;;;;;;;;;;;;;4980237;28;20444;-93
2023/08/30 08:56:12;;;;;;;;;;;;;;;;;;4968623;28;20286;-92
2023/08/30 08:58:41;;;;;;;;;;;;;;;;;;4983597;28;19917;-93
2023/08/30 09:01:10;;;;;;;;;;;;;;;;;;4972271;28;19917;-91
2023/08/30 09:03:40;;;;;;;;;;;;;;;;;;4965277;28;20003;-93
2023/08/30 09:06:06;;;;;;;;;;;;;;;;;;4965473;28;19941;-91
2023/08/30 09:08:32;;;;;;;;;;;;;;;;;;4982616;28;20015;-93
2023/08/30 09:10:58;;;;;;;;;;;;;;;;;;4981569;28;20162;-91
2023/08/30 09:13:24;;;;;;;;;;;;;;;;;;4980335;28;19924;-94
2023/08/30 09:15:50;;;;;;;;;;;;;;;;;;4981154;28;19932;-92
2023/08/30 09:18:20;;;;;;;;;;;;;;;;;;4985635;28;19932;-92
2023/08/30 09:20:46;;;;;;;;;;;;;;;;;;4985752;28;20058;-93
2023/08/30 09:23:12;;;;;;;;;;;;;;;;;;4983804;28;19917;-91
2023/08/30 09:25:38;;;;;;;;;;;;;;;;;;4982658;28;20047;-93
2023/08/30 09:30:53;;;;;;;;;;;;;;;;;;4961243;28;21465;-93
2023/08/30 09:33:19;;;;;;;;;;;;;;;;;;4984527;28;19913;-93
2023/08/30 09:35:45;;;;;;;;;;;;;;;;;;4981973;28;19918;-94
2023/08/30 09:38:11;;;;;;;;;;;;;;;;;;5000448;28;19909;-94
2023/08/30 09:40:37;;;;;;;;;;;;;;;;;;4982920;28;19913;-93
2023/08/30 09:43:03;;;;;;;;;;;;;;;;;;4985302;28;19909;-93
2023/08/30 09:45:29;;;;;;;;;;;;;;;;;;4982800;28;20016;-92
2023/08/30 09:47:55;;;;;;;;;;;;;;;;;;4981751;28;19975;-94
2023/08/30 09:50:21;;;;;;;;;;;;;;;;;;4981041;28;19916;-93
2023/08/30 09:52:48;;;;;;;;;;;;;;;;;;4979988;28;20459;-94
2023/08/30 09:55:14;;;;;;;;;;;;;;;;;;4983517;28;20404;-94
2023/08/30 09:57:40;;;;;;;;;;;;;;;;;;4984283;28;19923;-92
2023/08/30 10:00:06;;;;;;;;;;;;;;;;;;4982743;28;19918;-94
2023/08/30 10:02:35;;;;;;;;;;;;;;;;;;4979368;28;20658;-93
2023/08/30 10:05:01;;;;;;;;;;;;;;;;;;4986937;28;19913;-91
2023/08/30 10:07:27;;;;;;;;;;;;;;;;;;4983882;28;19918;-92
2023/08/30 10:09:53;;;;;;;;;;;;;;;;;;4977186;28;19913;-93
2023/08/30 10:12:19;;;;;;;;;;;;;;;;;;4981728;28;19944;-91
2023/08/30 10:14:48;;;;;;;;;;;;;;;;;;4996383;28;19917;-94
2023/08/30 10:17:14;;;;;;;;;;;;;;;;;;4983757;28;20333;-91
2023/08/30 10:19:40;;;;;;;;;;;;;;;;;;4998618;28;19913;-92
2023/08/30 10:22:14;;;;;;;;;;;;;;;;;;4995288;28;19922;-91
2023/08/30 10:24:40;;;;;;;;;;;;;;;;;;4982947;28;19920;-93
2023/08/30 10:27:07;;;;;;;;;;;;;;;;;;4981415;28;19917;-93
2023/08/30 10:29:33;;;;;;;;;;;;;;;;;;4983120;28;19914;-92
2023/08/30 10:32:15;;;;;;;;;;;;;;;;;;4983613;28;20537;-93
2023/08/30 10:34:44;;;;;;;;;;;;;;;;;;4986377;28;20373;-90
2023/08/30 10:37:10;;;;;;;;;;;;;;;;;;4983301;28;20001;-92
2023/08/30 10:39:36;;;;;;;;;;;;;;;;;;4981911;28;20004;-91
2023/08/30 10:42:08;;;;;;;;;;;;;;;;;;4987721;28;19921;-92
2023/08/30 10:44:35;;;;;;;;;;;;;;;;;;4981744;28;19920;-93
2023/08/30 10:47:01;;;;;;;;;;;;;;;;;;4999251;28;20044;-93
2023/08/30 10:49:27;;;;;;;;;;;;;;;;;;4979922;28;19909;-94
2023/08/30 10:51:58;;;;;;;;;;;;;;;;;;4984159;28;20420;-94
2023/08/30 10:54:27;;;;;;;;;;;;;;;;;;4987128;28;19909;-92
2023/08/30 10:56:53;;;;;;;;;;;;;;;;;;4987305;28;19914;-92
2023/08/30 10:59:34;;;;;;;;;;;;;;;;;;4980805;28;19917;-88
2023/08/30 11:02:00;;;;;;;;;;;;;;;;;;4976702;28;19914;-88
2023/08/30 11:04:27;;;;;;;;;;;;;;;;;;4987723;28;20013;-88
2023/08/30 11:06:52;;;;;;;;;;;;;;;;;;4979260;28;19981;-90
2023/08/30 11:09:18;;;;;;;;;;;;;;;;;;4982236;28;19925;-88
2023/08/30 11:11:45;;;;;;;;;;;;;;;;;;4976863;28;20378;-89
2023/08/30 11:14:11;;;;;;;;;;;;;;;;;;4978653;28;19924;-88
2023/08/30 11:16:37;;;;;;;;;;;;;;;;;;4977426;28;19913;-88
2023/08/30 11:19:03;;;;;;;;;;;;;;;;;;4978953;28;19917;-88
2023/08/30 11:21:29;;;;;;;;;;;;;;;;;;4974972;28;19948;-88
2023/08/30 11:24:03;;;;;;;;;;;;;;;;;;4968774;28;19920;-90
2023/08/30 11:26:29;;;;;;;;;;;;;;;;;;4970079;28;20798;-89
2023/08/30 11:28:55;;;;;;;;;;;;;;;;;;4958876;28;20298;-90
2023/08/30 11:31:22;;;;;;;;;;;;;;;;;;4964847;28;19910;-88
2023/08/30 11:33:48;;;;;;;;;;;;;;;;;;4968381;28;19913;-89
2023/08/30 11:36:14;;;;;;;;;;;;;;;;;;4954229;28;19925;-90
2023/08/30 11:38:40;;;;;;;;;;;;;;;;;;4956200;28;19964;-88
2023/08/30 11:41:06;;;;;;;;;;;;;;;;;;4968524;28;20390;-89
2023/08/30 11:43:35;;;;;;;;;;;;;;;;;;4957154;28;19910;-90
2023/08/30 11:46:01;;;;;;;;;;;;;;;;;;4957089;28;19918;-89
2023/08/30 11:48:27;;;;;;;;;;;;;;;;;;4966598;28;19920;-89
2023/08/30 11:50:53;;;;;;;;;;;;;;;;;;4967042;28;20273;-90
2023/08/30 11:53:19;;;;;;;;;;;;;;;;;;4958903;28;19920;-89
2023/08/30 11:55:49;;;;;;;;;;;;;;;;;;4970588;28;21160;-89
2023/08/30 11:58:15;;;;;;;;;;;;;;;;;;4957231;28;19967;-88
2023/08/30 12:00:41;;;;;;;;;;;;;;;;;;4954983;28;19968;-89
2023/08/30 12:03:07;;;;;;;;;;;;;;;;;;4958353;28;19924;-89
2023/08/30 12:05:35;;;;;;;;;;;;;;;;;;4959220;28;19913;-89
2023/08/30 12:08:04;;;;;;;;;;;;;;;;;;4971533;28;20008;-90
2023/08/30 12:10:31;;;;;;;;;;;;;;;;;;4955436;28;19918;-88
2023/08/30 12:12:58;;;;;;;;;;;;;;;;;;4973945;28;19951;-88
2023/08/30 12:15:26;;;;;;;;;;;;;;;;;;4958369;28;20004;-89
2023/08/30 12:17:52;;;;;;;;;;;;;;;;;;4975933;28;20019;-88
2023/08/30 12:20:20;;;;;;;;;;;;;;;;;;4972073;28;19949;-88
2023/08/30 12:22:47;;;;;;;;;;;;;;;;;;4966647;28;20011;-90
2023/08/30 12:25:13;;;;;;;;;;;;;;;;;;4978607;28;19917;-90
2023/08/30 12:27:39;;;;;;;;;;;;;;;;;;4980813;28;19992;-89
2023/08/30 12:30:06;;;;;;;;;;;;;;;;;;4977703;28;20704;-89
2023/08/30 12:32:32;;;;;;;;;;;;;;;;;;4976595;28;20006;-89
2023/08/30 12:34:58;;;;;;;;;;;;;;;;;;4979945;28;20008;-91
2023/08/30 12:37:24;;;;;;;;;;;;;;;;;;4980126;28;19920;-89
2023/08/30 12:39:50;;;;;;;;;;;;;;;;;;4981001;28;19909;-89
2023/08/30 12:42:16;;;;;;;;;;;;;;;;;;4979664;28;19925;-89
2023/08/30 12:44:42;;;;;;;;;;;;;;;;;;4977689;28;20396;-89
2023/08/30 12:47:08;;;;;;;;;;;;;;;;;;4978400;28;20021;-90
2023/08/30 12:49:34;;;;;;;;;;;;;;;;;;4980450;28;19909;-90
2023/08/30 12:52:00;;;;;;;;;;;;;;;;;;4979554;28;19955;-90
2023/08/30 12:54:26;;;;;;;;;;;;;;;;;;4980302;28;19920;-89
2023/08/30 12:56:53;;;;;;;;;;;;;;;;;;4974582;28;19968;-90
2023/08/30 12:59:18;;;;;;;;;;;;;;;;;;4978396;28;19954;-89
2023/08/30 13:01:54;;;;;;;;;;;;;;;;;;4980606;28;19976;-89
2023/08/30 13:04:20;;;;;;;;;;;;;;;;;;4983191;28;19917;-89
2023/08/30 13:06:46;;;;;;;;;;;;;;;;;;4977195;28;20015;-90
2023/08/30 13:09:12;;;;;;;;;;;;;;;;;;4982885;28;20028;-89
2023/08/30 13:11:38;;;;;;;;;;;;;;;;;;4979943;28;20700;-89
2023/08/30 13:14:04;;;;;;;;;;;;;;;;;;4996978;28;19910;-88
2023/08/30 13:16:29;;;;;;;;;;;;;;;;;;4978091;28;20309;-89
2023/08/30 13:18:55;;;;;;;;;;;;;;;;;;4983676;28;19960;-90
2023/08/30 13:21:22;;;;;;;;;;;;;;;;;;4982408;28;20008;-90
2023/08/30 13:23:48;;;;;;;;;;;;;;;;;;4981011;28;20531;-91
2023/08/30 13:26:14;;;;;;;;;;;;;;;;;;4988799;28;20404;-90
2023/08/30 13:28:40;;;;;;;;;;;;;;;;;;4979434;28;19917;-90
2023/08/30 13:31:06;;;;;;;;;;;;;;;;;;4977432;28;19923;-91
2023/08/30 13:33:31;;;;;;;;;;;;;;;;;;4979411;28;20383;-90
2023/08/30 13:35:57;;;;;;;;;;;;;;;;;;4983901;28;20457;-90
2023/08/30 13:38:26;;;;;;;;;;;;;;;;;;4981195;28;19909;-90
2023/08/30 13:40:53;;;;;;;;;;;;;;;;;;4981014;28;20019;-90
2023/08/30 13:43:19;;;;;;;;;;;;;;;;;;4981739;28;20394;-90
2023/08/30 13:45:47;;;;;;;;;;;;;;;;;;4981006;28;19921;-90
2023/08/30 13:48:13;;;;;;;;;;;;;;;;;;4981632;28;24095;-90
2023/08/30 13:50:42;;;;;;;;;;;;;;;;;;4981090;28;19921;-90
2023/08/30 13:53:08;;;;;;;;;;;;;;;;;;4981105;28;19917;-89
2023/08/30 13:55:34;;;;;;;;;;;;;;;;;;4983885;28;20384;-90
2023/08/30 13:58:03;;;;;;;;;;;;;;;;;;4994223;28;19917;-91
2023/08/30 14:00:29;;;;;;;;;;;;;;;;;;4979158;28;19920;-91
2023/08/30 14:02:57;;;;;;;;;;;;;;;;;;4977791;28;19924;-91
2023/08/30 14:05:23;;;;;;;;;;;;;;;;;;4980177;28;19920;-91
2023/08/30 14:07:51;;;;;;;;;;;;;;;;;;4977568;28;20439;-91
2023/08/30 14:10:18;;;;;;;;;;;;;;;;;;4981058;28;20016;-91
2023/08/30 14:12:44;;;;;;;;;;;;;;;;;;4978790;28;19913;-91
2023/08/30 14:15:10;;;;;;;;;;;;;;;;;;4983112;28;20325;-91
2023/08/30 14:17:36;;;;;;;;;;;;;;;;;;4978608;28;19923;-91
2023/08/30 14:20:02;;;;;;;;;;;;;;;;;;4979226;28;19917;-92
2023/08/30 14:22:29;;;;;;;;;;;;;;;;;;4992307;28;19933;-92
2023/08/30 14:24:55;;;;;;;;;;;;;;;;;;4981071;28;19921;-91
2023/08/30 14:27:21;;;;;;;;;;;;;;;;;;4978713;28;19951;-91
2023/08/30 14:29:54;;;;;;;;;;;;;;;;;;4994283;28;20661;-91
2023/08/30 14:32:20;;;;;;;;;;;;;;;;;;4989110;28;19920;-92
2023/08/30 14:34:55;;;;;;;;;;;;;;;;;;4995090;28;19918;-91
2023/08/30 14:37:21;;;;;;;;;;;;;;;;;;4980011;28;19917;-91
2023/08/30 14:39:47;;;;;;;;;;;;;;;;;;4980739;28;20290;-91
2023/08/30 14:42:19;;;;;;;;;;;;;;;;;;4980857;28;20728;-92
2023/08/30 14:44:45;;;;;;;;;;;;;;;;;;4976728;28;19917;-92
2023/08/30 14:47:11;;;;;;;;;;;;;;;;;;4984365;28;21040;-92
2023/08/30 14:49:37;;;;;;;;;;;;;;;;;;4985342;28;20015;-92
2023/08/30 14:52:03;;;;;;;;;;;;;;;;;;4990375;28;19909;-92
2023/08/30 14:54:29;;;;;;;;;;;;;;;;;;4990730;28;20016;-91
2023/08/30 14:56:55;;;;;;;;;;;;;;;;;;4991724;28;20000;-92
2023/08/30 14:59:21;;;;;;;;;;;;;;;;;;4987678;28;19968;-92
2023/08/30 15:01:47;;;;;;;;;;;;;;;;;;4991674;28;19972;-92
2023/08/30 15:04:13;;;;;;;;;;;;;;;;;;4989813;28;20007;-92
2023/08/30 15:06:40;;;;;;;;;;;;;;;;;;4992270;28;19917;-92
2023/08/30 15:09:06;;;;;;;;;;;;;;;;;;4990152;28;20448;-92
2023/08/30 15:11:32;;;;;;;;;;;;;;;;;;4986846;28;19913;-91
2023/08/30 15:13:59;;;;;;;;;;;;;;;;;;4988303;28;20389;-89
2023/08/30 15:16:36;;;;;;;;;;;;;;;;;;4989230;28;20258;-93
2023/08/30 15:19:02;;;;;;;;;;;;;;;;;;4990112;28;19977;-93
2023/08/30 15:21:29;;;;;;;;;;;;;;;;;;5002405;28;20012;-92
2023/08/30 15:23:55;;;;;;;;;;;;;;;;;;4982211;28;20514;-92
2023/08/30 15:26:21;;;;;;;;;;;;;;;;;;4969011;28;19914;-92
2023/08/30 15:28:47;;;;;;;;;;;;;;;;;;4971655;28;20757;-91
2023/08/30 15:31:18;;;;;;;;;;;;;;;;;;4972093;28;19918;-91
2023/08/30 15:33:44;;;;;;;;;;;;;;;;;;4968889;28;19937;-93
2023/08/30 15:36:13;;;;;;;;;;;;;;;;;;4969401;28;19922;-91
2023/08/30 15:38:41;;;;;;;;;;;;;;;;;;4971619;28;19932;-92
2023/08/30 15:41:08;;;;;;;;;;;;;;;;;;4964773;28;19921;-92
2023/08/30 15:43:39;;;;;;;;;;;;;;;;;;4964499;28;19913;-91
2023/08/30 15:46:05;;;;;;;;;;;;;;;;;;4967355;28;19925;-90
2023/08/30 15:48:31;;;;;;;;;;;;;;;;;;4985347;28;19918;-91
2023/08/30 15:50:57;;;;;;;;;;;;;;;;;;4982372;28;19918;-90
2023/08/30 15:53:24;;;;;;;;;;;;;;;;;;4984803;28;19976;-90
2023/08/30 15:55:56;;;;;;;;;;;;;;;;;;4975654;28;19917;-90
2023/08/30 15:58:25;;;;;;;;;;;;;;;;;;4972375;28;22561;-91
2023/08/30 16:00:51;;;;;;;;;;;;;;;;;;4972381;28;19918;-90
2023/08/30 16:03:23;;;;;;;;;;;;;;;;;;4971155;28;19936;-90
2023/08/30 16:05:49;;;;;;;;;;;;;;;;;;4970602;28;19914;-91
2023/08/30 16:08:15;;;;;;;;;;;;;;;;;;4984880;28;19939;-90
2023/08/30 16:10:41;;;;;;;;;;;;;;;;;;4987523;28;19960;-90
2023/08/30 16:13:07;;;;;;;;;;;;;;;;;;4973573;28;20277;-91
2023/08/30 16:15:35;;;;;;;;;;;;;;;;;;4984532;28;20255;-90
2023/08/30 16:18:01;;;;;;;;;;;;;;;;;;4985964;28;19921;-90
2023/08/30 16:20:27;;;;;;;;;;;;;;;;;;4986927;28;19913;-91
2023/08/30 16:22:53;;;;;;;;;;;;;;;;;;4972026;28;19917;-91
2023/08/30 16:25:22;;;;;;;;;;;;;;;;;;4987486;28;19920;-91
2023/08/30 16:27:49;;;;;;;;;;;;;;;;;;4989281;28;19917;-90
2023/08/30 16:30:25;;;;;;;;;;;;;;;;;;;;;
2023/08/30 16:32:51;;;;;;;;;;;;;;;;;;5005162;28;19914;-91
2023/08/30 16:35:27;;;;;;;;;;;;;;;;;;4989802;28;19992;-91
2023/08/30 16:37:53;;;;;;;;;;;;;;;;;;4989592;28;20149;-90
2023/08/30 16:40:31;;;;;;;;;;;;;;;;;;5002385;28;19945;-91
2023/08/30 16:43:08;;;;;;;;;;;;;;;;;;4989966;28;19959;-91
2023/08/30 16:45:34;;;;;;;;;;;;;;;;;;4986423;28;19964;-91